KMIC/MIC METAR and TAF weather

Enter ICAO airport designator
Station Type Date Time Source
KMIC METAR 2021/02/28 03:53 UTC NOAA

KMIC 280353Z AUTO 00000KT 10SM OVC080 04/M02 A2995 RMK AO2 SLP149 T00391022


Station Type Date Time Source
KMIC Decoded METAR 2021/02/28 03:53 UTC NOAA

CRYSTAL AIRPORT, MN, United States (KMIC) 45-04N 093-21W 265M
Feb 27, 2021 - 10:53 PM EST / 2021.02.28 0353 UTC
Wind: Calm:0
Visibility: 10 mile(s):0
Sky conditions: overcast
Temperature: 39.0 F (3.9 C)
Dew Point: 28.0 F (-2.2 C)
Relative Humidity: 64%
Pressure (altimeter): 29.95 in. Hg (1014 hPa)
ob: KMIC 280353Z AUTO 00000KT 10SM OVC080 04/M02 A2995 RMK AO2 SLP149 T00391022
cycle: 4

Station Type Date Time Source
KMIC TAF UTC NOAA

Error!

Example: see airport list